createdAt,value
2022-09-23T00:01:48.059Z,65.32
2022-09-23T00:04:19.668Z,65.20
2022-09-23T00:06:52.125Z,65.18
2022-09-23T00:09:24.503Z,65.18
2022-09-23T00:11:57.352Z,65.07
2022-09-23T00:14:29.366Z,65.06
2022-09-23T00:17:01.016Z,64.98
2022-09-23T00:19:32.661Z,64.96
2022-09-23T00:22:06.808Z,64.98
2022-09-23T00:24:38.421Z,64.92
2022-09-23T00:27:10.920Z,64.82
2022-09-23T00:29:42.547Z,64.87
2022-09-23T00:32:16.178Z,64.85
2022-09-23T00:34:48.012Z,65.06
2022-09-23T00:37:20.759Z,65.09
2022-09-23T00:39:52.345Z,64.96
2022-09-23T00:42:27.696Z,64.99
2022-09-23T00:45:00.671Z,65.07
2022-09-23T00:47:36.540Z,64.98
2022-09-23T00:50:18.013Z,65.12
2022-09-23T00:52:53.879Z,65.14
2022-09-23T00:55:31.913Z,65.09
2022-09-23T00:58:07.723Z,65.15
2022-09-23T01:00:39.330Z,65.21
2022-09-23T01:03:12.890Z,65.08
2022-09-23T01:05:45.115Z,65.23
2022-09-23T01:08:17.718Z,65.20
2022-09-23T01:10:59.373Z,65.13
2022-09-23T01:13:39.815Z,65.13
2022-09-23T01:16:19.753Z,65.15
2022-09-23T01:19:00.130Z,65.20
2022-09-23T01:21:46.042Z,65.14
2022-09-23T01:24:46.630Z,65.18
2022-09-23T01:27:27.580Z,65.27
2022-09-23T01:30:21.953Z,65.16
2022-09-23T01:33:05.695Z,65.36
2022-09-23T01:35:50.700Z,65.41
2022-09-23T01:38:34.571Z,65.49
2022-09-23T01:41:16.171Z,65.32
2022-09-23T01:43:55.672Z,65.25
2022-09-23T01:46:34.189Z,65.18
2022-09-23T01:49:13.018Z,65.33
2022-09-23T01:51:54.695Z,65.38
2022-09-23T01:54:32.187Z,65.28
2022-09-23T01:57:10.325Z,65.52
2022-09-23T01:59:48.032Z,65.75
2022-09-23T02:02:27.814Z,65.63
2022-09-23T02:05:03.891Z,65.69
2022-09-23T02:07:42.067Z,65.54
2022-09-23T02:10:17.797Z,65.60
2022-09-23T02:12:51.518Z,65.60
2022-09-23T02:15:27.557Z,65.64
2022-09-23T02:18:04.954Z,65.76
2022-09-23T02:20:40.682Z,65.94
2022-09-23T02:23:17.285Z,66.14
2022-09-23T02:25:55.541Z,66.34
2022-09-23T02:28:33.876Z,66.47
2022-09-23T02:31:12.170Z,66.57
2022-09-23T02:33:53.592Z,66.87
2022-09-23T02:36:34.725Z,66.63
2022-09-23T02:39:15.319Z,66.94
2022-09-23T02:41:52.329Z,67.16
2022-09-23T02:45:41.639Z,67.36
2022-09-23T02:48:19.482Z,67.65
2022-09-23T02:50:53.991Z,67.82
2022-09-23T02:53:27.551Z,67.71
2022-09-23T02:55:59.168Z,68.19
2022-09-23T02:58:31.549Z,67.88
2022-09-23T03:01:12.805Z,68.23
2022-09-23T03:03:50.573Z,68.61
2022-09-23T03:06:33.080Z,68.77
2022-09-23T03:09:11.646Z,68.48
2022-09-23T03:11:49.443Z,68.64
2022-09-23T03:14:31.073Z,68.85
2022-09-23T03:17:07.329Z,68.61
2022-09-23T03:19:48.450Z,68.63
2022-09-23T03:22:22.040Z,68.70
2022-09-23T03:24:55.482Z,68.64
2022-09-23T03:27:31.331Z,68.50
2022-09-23T03:30:03.975Z,68.53
2022-09-23T03:32:46.068Z,68.45
2022-09-23T03:35:17.976Z,68.55
2022-09-23T03:37:54.318Z,68.58
2022-09-23T03:40:29.711Z,68.43
2022-09-23T03:43:04.346Z,68.52
2022-09-23T03:45:36.655Z,68.45
2022-09-23T03:48:08.367Z,68.43
2022-09-23T03:50:40.163Z,68.44
2022-09-23T03:53:16.007Z,68.45
2022-09-23T03:55:48.276Z,68.27
2022-09-23T03:58:19.832Z,68.31
2022-09-23T04:00:55.138Z,68.29
2022-09-23T04:03:29.068Z,68.22
2022-09-23T04:06:00.921Z,68.35
2022-09-23T04:08:32.647Z,68.26
2022-09-23T04:11:05.415Z,68.48
2022-09-23T04:13:38.608Z,68.66
2022-09-23T04:16:11.732Z,68.81
2022-09-23T04:18:43.353Z,68.91
2022-09-23T04:21:14.911Z,68.84
2022-09-23T04:23:47.904Z,68.86
2022-09-23T04:26:20.213Z,68.75
2022-09-23T04:28:51.970Z,68.77
2022-09-23T04:31:24.229Z,68.93
2022-09-23T04:33:57.062Z,68.85
2022-09-23T04:36:30.405Z,68.84
2022-09-23T04:39:02.873Z,68.81
2022-09-23T04:41:34.776Z,68.66
2022-09-23T04:44:06.475Z,68.62
2022-09-23T04:46:39.297Z,68.60
2022-09-23T04:49:11.288Z,68.47
2022-09-23T04:51:43.764Z,68.46
2022-09-23T04:54:17.068Z,68.52
2022-09-23T04:56:48.601Z,68.39
2022-09-23T04:59:20.333Z,68.41
2022-09-23T05:01:52.715Z,68.32
2022-09-23T05:07:57.076Z,67.93
2022-09-23T05:10:31.187Z,67.91
2022-09-23T05:13:11.593Z,67.80
2022-09-23T05:15:51.245Z,67.69
2022-09-23T05:18:22.888Z,67.48
2022-09-23T05:21:19.663Z,67.44
2022-09-23T05:24:01.517Z,67.38
2022-09-23T05:26:34.682Z,67.29
2022-09-23T05:29:07.060Z,67.21
2022-09-23T05:31:40.397Z,67.07
2022-09-23T05:34:12.256Z,67.12
2022-09-23T05:36:43.848Z,67.03
2022-09-23T05:39:15.584Z,66.95
2022-09-23T05:41:47.676Z,66.86
2022-09-23T05:44:19.284Z,66.88
2022-09-23T05:46:51.013Z,66.87
2022-09-23T05:49:33.211Z,66.65
2022-09-23T05:52:16.549Z,66.80
2022-09-23T05:54:48.107Z,66.68
2022-09-23T05:57:21.210Z,66.85
2022-09-23T05:59:52.973Z,66.83
2022-09-23T06:02:25.442Z,66.80
2022-09-23T06:04:57.079Z,66.90
2022-09-23T06:07:36.348Z,66.79
2022-09-23T06:10:10.849Z,67.01
2022-09-23T06:12:44.630Z,67.18
2022-09-23T06:15:17.035Z,67.24
2022-09-23T06:17:51.609Z,67.38
2022-09-23T06:20:23.239Z,67.52
2022-09-23T06:22:55.665Z,67.53
2022-09-23T06:25:27.265Z,67.59
2022-09-23T06:27:59.409Z,67.60
2022-09-23T06:30:31.101Z,67.62
2022-09-23T06:33:03.050Z,67.80
2022-09-23T06:35:34.801Z,67.81
2022-09-23T06:38:07.642Z,67.87
2022-09-23T06:40:39.262Z,67.89
2022-09-23T06:43:11.930Z,67.96
2022-09-23T06:45:43.839Z,67.92
2022-09-23T06:48:15.471Z,67.83
2022-09-23T06:50:47.159Z,67.95
2022-09-23T06:53:18.971Z,67.81
2022-09-23T06:55:50.757Z,67.97
2022-09-23T06:58:22.670Z,68.33
2022-09-23T07:00:55.255Z,68.28
2022-09-23T07:03:27.628Z,68.05
2022-09-23T07:06:01.777Z,67.98
2022-09-23T07:08:34.819Z,68.16
2022-09-23T07:11:13.364Z,67.95
2022-09-23T07:13:46.791Z,67.79
2022-09-23T07:16:18.484Z,67.73
2022-09-23T07:18:50.464Z,67.66
2022-09-23T07:21:22.220Z,67.32
2022-09-23T07:23:55.355Z,67.28
2022-09-23T07:26:27.589Z,67.05
2022-09-23T07:29:04.947Z,67.02
2022-09-23T07:31:39.985Z,66.88
2022-09-23T07:34:12.884Z,66.67
2022-09-23T07:36:44.593Z,66.53
2022-09-23T07:39:16.196Z,66.39
2022-09-23T07:41:48.269Z,66.22
2022-09-23T07:44:22.779Z,66.12
2022-09-23T07:46:54.407Z,65.93
2022-09-23T07:49:26.063Z,65.59
2022-09-23T07:51:58.004Z,65.38
2022-09-23T07:54:29.923Z,64.92
2022-09-23T07:57:01.988Z,64.74
2022-09-23T07:59:36.246Z,64.47
2022-09-23T08:02:07.970Z,64.25
2022-09-23T08:04:39.712Z,64.11
2022-09-23T08:07:13.409Z,63.80
2022-09-23T08:09:47.037Z,63.62
2022-09-23T08:12:22.360Z,63.42
2022-09-23T08:14:54.112Z,63.61
2022-09-23T08:17:26.004Z,62.99
2022-09-23T08:19:57.610Z,62.45
2022-09-23T08:22:29.912Z,62.57
2022-09-23T08:25:01.579Z,62.45
2022-09-23T08:27:33.290Z,62.35
2022-09-23T08:30:13.794Z,62.51
2022-09-23T08:32:45.498Z,62.21
2022-09-23T08:35:17.666Z,62.02
2022-09-23T08:37:49.413Z,61.24
2022-09-23T08:40:26.742Z,59.08
2022-09-23T08:42:58.409Z,60.07
2022-09-23T08:45:30.578Z,60.10
2022-09-23T08:48:10.739Z,59.82
2022-09-23T08:50:49.749Z,60.12
2022-09-23T08:53:27.448Z,60.43
2022-09-23T08:56:04.106Z,59.82
2022-09-23T08:58:48.166Z,59.83
2022-09-23T09:01:25.838Z,59.09
2022-09-23T09:03:59.490Z,58.92
2022-09-23T09:06:52.937Z,59.44
2022-09-23T09:09:31.583Z,58.97
2022-09-23T09:12:12.861Z,58.61
2022-09-23T09:14:51.988Z,58.51
2022-09-23T09:17:36.630Z,58.03
2022-09-23T09:20:23.306Z,57.43
2022-09-23T09:23:00.719Z,55.55
2022-09-23T09:25:42.580Z,56.99
2022-09-23T09:28:20.097Z,56.28
2022-09-23T09:30:57.511Z,56.29
2022-09-23T09:33:37.584Z,55.92
2022-09-23T09:36:21.854Z,56.06
2022-09-23T09:38:53.481Z,54.54
2022-09-23T09:41:27.488Z,55.45
2022-09-23T09:44:00.916Z,55.38
2022-09-23T09:46:51.099Z,54.79
2022-09-23T09:49:31.023Z,53.39
2022-09-23T09:52:20.770Z,53.39
2022-09-23T09:54:53.676Z,52.00
2022-09-23T09:57:36.053Z,52.24
2022-09-23T10:00:38.790Z,52.08
2022-09-23T10:03:29.055Z,52.80
2022-09-23T10:06:00.922Z,52.06
2022-09-23T10:08:37.429Z,51.55
2022-09-23T10:11:17.678Z,51.79
2022-09-23T10:14:07.135Z,49.96
2022-09-23T10:16:41.010Z,50.85
2022-09-23T10:19:26.135Z,50.48
2022-09-23T10:22:01.749Z,49.28
2022-09-23T10:24:36.443Z,50.19
2022-09-23T10:27:11.448Z,49.99
2022-09-23T10:29:52.095Z,48.76
2022-09-23T10:32:28.001Z,48.21
2022-09-23T10:35:03.007Z,47.99
2022-09-23T10:37:39.785Z,47.49
2022-09-23T10:40:43.784Z,48.11
2022-09-23T10:43:42.131Z,47.59
2022-09-23T10:46:37.887Z,47.44
2022-09-23T10:49:50.063Z,47.72
2022-09-23T10:52:39.371Z,47.68
2022-09-23T10:55:24.569Z,46.74
2022-09-23T10:58:25.664Z,47.00
2022-09-23T11:01:07.088Z,45.45
2022-09-23T11:04:01.452Z,44.89
2022-09-23T11:06:47.793Z,44.26
2022-09-23T11:09:32.748Z,45.49
2022-09-23T11:12:20.147Z,45.91
2022-09-23T11:15:04.873Z,46.64
2022-09-23T11:17:52.585Z,46.74
2022-09-23T11:20:48.211Z,46.22
2022-09-23T11:23:48.041Z,42.10
2022-09-23T11:26:33.293Z,42.40
2022-09-23T11:29:23.781Z,43.08
2022-09-23T11:32:10.306Z,42.52
2022-09-23T11:35:02.654Z,43.12
2022-09-23T11:37:38.106Z,41.81
2022-09-23T11:40:25.492Z,42.05
2022-09-23T11:43:04.211Z,42.52
2022-09-23T11:45:42.006Z,42.28
2022-09-23T11:48:19.182Z,39.66
2022-09-23T11:50:58.987Z,41.86
2022-09-23T11:53:39.085Z,41.00
2022-09-23T11:56:31.879Z,41.37
2022-09-23T11:59:13.304Z,41.09
2022-09-23T12:01:58.207Z,41.51
2022-09-23T12:04:56.855Z,41.67
2022-09-23T12:07:35.927Z,41.19
2022-09-23T12:10:10.325Z,41.31
2022-09-23T12:12:49.313Z,41.15
2022-09-23T12:15:36.080Z,41.92
2022-09-23T12:18:23.555Z,41.15
2022-09-23T12:21:27.125Z,41.12
2022-09-23T12:24:25.463Z,40.87
2022-09-23T12:27:01.500Z,41.29
2022-09-23T12:29:36.260Z,41.78
2022-09-23T12:32:10.082Z,41.29
2022-09-23T12:34:49.199Z,41.07
2022-09-23T12:37:28.960Z,39.89
2022-09-23T12:40:26.489Z,39.85
2022-09-23T12:43:01.225Z,39.81
2022-09-23T12:45:41.547Z,40.15
2022-09-23T12:48:48.989Z,40.39
2022-09-23T12:51:25.215Z,40.82
2022-09-23T12:54:15.331Z,39.95
2022-09-23T12:57:01.808Z,41.29
2022-09-23T12:59:57.557Z,41.52
2022-09-23T13:02:38.702Z,41.52
2022-09-23T13:05:38.809Z,41.62
2022-09-23T13:08:14.712Z,40.98
2022-09-23T13:10:50.023Z,41.19
2022-09-23T13:13:28.326Z,40.69
2022-09-23T13:16:13.841Z,40.49
2022-09-23T13:18:59.738Z,39.97
2022-09-23T13:22:09.274Z,40.68
2022-09-23T13:24:44.403Z,40.30
2022-09-23T13:27:23.093Z,39.98
2022-09-23T13:29:59.935Z,40.65
2022-09-23T13:32:35.459Z,40.43
2022-09-23T13:35:16.799Z,40.51
2022-09-23T13:37:50.111Z,40.35
2022-09-23T13:40:31.808Z,40.46
2022-09-23T13:43:05.956Z,40.49
2022-09-23T13:45:43.304Z,40.65
2022-09-23T13:48:16.610Z,40.40
2022-09-23T13:50:53.606Z,40.76
2022-09-23T13:53:29.012Z,39.97
2022-09-23T13:56:06.464Z,40.52
2022-09-23T13:58:38.405Z,40.60
2022-09-23T14:01:23.364Z,40.59
2022-09-23T14:03:54.961Z,40.50
2022-09-23T14:06:28.330Z,40.46
2022-09-23T14:09:02.498Z,40.00
2022-09-23T14:11:38.953Z,40.46
2022-09-23T14:14:14.991Z,39.84
2022-09-23T14:16:49.782Z,40.06
2022-09-23T14:19:23.563Z,39.85
2022-09-23T14:21:56.439Z,39.56
2022-09-23T14:24:34.189Z,40.25
2022-09-23T14:27:18.988Z,40.36
2022-09-23T14:29:51.181Z,40.29
2022-09-23T14:32:27.682Z,40.23
2022-09-23T14:35:17.828Z,39.81
2022-09-23T14:38:18.937Z,40.09
2022-09-23T14:41:15.572Z,40.03
2022-09-23T14:43:52.862Z,40.30
2022-09-23T14:46:25.889Z,40.58
2022-09-23T14:49:05.881Z,39.48
2022-09-23T14:51:48.170Z,39.25
2022-09-23T14:54:42.580Z,39.67
2022-09-23T14:57:30.560Z,39.96
2022-09-23T15:00:17.512Z,40.05
2022-09-23T15:03:01.975Z,40.31
2022-09-23T15:05:43.188Z,40.93
2022-09-23T15:08:19.222Z,40.97
2022-09-23T15:10:53.032Z,41.25
2022-09-23T15:13:28.451Z,41.65
2022-09-23T15:16:02.030Z,41.85
2022-09-23T15:18:36.987Z,41.41
2022-09-23T15:21:13.942Z,41.47
2022-09-23T15:23:50.022Z,41.35
2022-09-23T15:26:24.669Z,41.06
2022-09-23T15:28:59.934Z,41.21
2022-09-23T15:31:32.467Z,41.11
2022-09-23T15:34:05.660Z,41.05
2022-09-23T15:36:38.399Z,41.00
2022-09-23T15:39:12.142Z,40.84
2022-09-23T15:41:44.072Z,41.05
2022-09-23T15:44:18.104Z,41.17
2022-09-23T15:46:52.055Z,41.36
2022-09-23T15:49:30.394Z,41.43
2022-09-23T15:52:04.408Z,41.77
2022-09-23T15:54:36.287Z,41.83
2022-09-23T15:57:08.075Z,41.80
2022-09-23T15:59:40.196Z,41.93
2022-09-23T16:02:25.845Z,42.27
2022-09-23T16:04:57.490Z,42.17
2022-09-23T16:07:29.175Z,42.36
2022-09-23T16:10:00.869Z,42.57
2022-09-23T16:12:33.311Z,43.07
2022-09-23T16:15:05.065Z,43.04
2022-09-23T16:17:37.823Z,43.23
2022-09-23T16:20:12.403Z,43.41
2022-09-23T16:22:43.989Z,43.69
2022-09-23T16:25:15.716Z,44.08
2022-09-23T16:27:47.245Z,44.30
2022-09-23T16:30:19.127Z,44.90
2022-09-23T16:32:51.790Z,45.03
2022-09-23T16:35:26.970Z,45.37
2022-09-23T16:37:58.583Z,45.53
2022-09-23T16:40:35.790Z,45.72
2022-09-23T16:43:08.440Z,46.01
2022-09-23T16:45:40.105Z,46.32
2022-09-23T16:48:12.643Z,46.72
2022-09-23T16:50:44.966Z,46.55
2022-09-23T16:53:18.215Z,46.90
2022-09-23T16:55:49.871Z,47.29
2022-09-23T16:58:22.499Z,47.33
2022-09-23T17:01:17.494Z,47.65
2022-09-23T17:03:49.764Z,47.83
2022-09-23T17:06:24.080Z,47.97
2022-09-23T17:08:56.341Z,48.46
2022-09-23T17:11:33.430Z,48.44
2022-09-23T17:14:06.394Z,48.74
2022-09-23T17:16:38.127Z,49.10
2022-09-23T17:19:11.905Z,49.39
2022-09-23T17:21:43.540Z,49.69
2022-09-23T17:24:15.320Z,49.68
2022-09-23T17:26:52.606Z,49.81
2022-09-23T17:29:26.973Z,49.90
2022-09-23T17:31:59.085Z,50.15
2022-09-23T17:34:33.572Z,50.30
2022-09-23T17:37:05.300Z,50.46
2022-09-23T17:39:37.043Z,50.46
2022-09-23T17:42:08.726Z,50.76
2022-09-23T17:44:41.279Z,50.82
2022-09-23T17:47:12.973Z,50.86
2022-09-23T17:49:47.272Z,50.98
2022-09-23T17:52:20.055Z,51.03
2022-09-23T17:54:53.908Z,51.04
2022-09-23T17:57:25.766Z,51.18
2022-09-23T17:59:57.634Z,51.44
2022-09-23T18:02:29.380Z,51.37
2022-09-23T18:05:01.262Z,51.63
2022-09-23T18:07:33.037Z,51.94
2022-09-23T18:10:12.497Z,51.92
2022-09-23T18:12:44.214Z,52.14
2022-09-23T18:15:19.963Z,52.34
2022-09-23T18:17:51.946Z,52.41
2022-09-23T18:20:29.022Z,52.61
2022-09-23T18:23:02.338Z,52.86
2022-09-23T18:25:39.661Z,52.77
2022-09-23T18:28:11.764Z,52.97
2022-09-23T18:30:53.859Z,53.20
2022-09-23T18:33:25.968Z,53.28
2022-09-23T18:36:00.866Z,53.40
2022-09-23T18:38:32.887Z,53.47
2022-09-23T18:41:05.975Z,53.82
2022-09-23T18:43:42.227Z,53.89
2022-09-23T18:46:17.624Z,54.08
2022-09-23T18:49:08.783Z,54.04
2022-09-23T18:51:49.193Z,54.37
2022-09-23T18:54:21.815Z,54.49
2022-09-23T18:56:53.714Z,54.40
2022-09-23T18:59:29.886Z,54.86
2022-09-23T19:02:03.043Z,54.86
2022-09-23T19:04:35.310Z,54.76
2022-09-23T19:07:08.733Z,54.87
2022-09-23T19:09:40.474Z,55.03
2022-09-23T19:12:13.128Z,55.03
2022-09-23T19:14:45.057Z,55.43
2022-09-23T19:17:17.647Z,55.71
2022-09-23T19:19:50.258Z,55.72
2022-09-23T19:22:22.834Z,55.95
2022-09-23T19:24:54.552Z,56.18
2022-09-23T19:27:26.285Z,56.86
2022-09-23T19:29:58.384Z,56.69
2022-09-23T19:32:35.695Z,56.91
2022-09-23T19:35:10.402Z,56.95
2022-09-23T19:37:43.238Z,57.01
2022-09-23T19:40:15.599Z,57.21
2022-09-23T19:42:47.723Z,57.39
2022-09-23T19:45:19.585Z,57.59
2022-09-23T19:47:56.832Z,57.99
2022-09-23T19:50:30.908Z,57.92
2022-09-23T19:53:06.203Z,58.07
2022-09-23T19:55:38.813Z,58.26
2022-09-23T19:58:10.642Z,58.48
2022-09-23T20:00:42.784Z,58.58
2022-09-23T20:03:18.477Z,58.51
2022-09-23T20:05:58.096Z,58.52
2022-09-23T20:08:31.894Z,58.60
2022-09-23T20:11:11.662Z,58.54
2022-09-23T20:13:47.451Z,58.47
2022-09-23T20:16:20.864Z,58.56
2022-09-23T20:18:55.682Z,58.72
2022-09-23T20:21:28.338Z,58.84
2022-09-23T20:24:00.470Z,58.92
2022-09-23T20:26:49.691Z,59.21
2022-09-23T20:29:21.309Z,59.22
2022-09-23T20:31:52.973Z,59.30
2022-09-23T20:34:27.498Z,59.55
2022-09-23T20:36:59.351Z,59.54
2022-09-23T20:39:31.113Z,59.57
2022-09-23T20:42:02.812Z,59.65
2022-09-23T20:44:35.309Z,59.76
2022-09-23T20:47:07.093Z,59.77
2022-09-23T20:49:42.595Z,59.82
2022-09-23T20:52:16.619Z,59.88
2022-09-23T20:54:51.703Z,59.90
2022-09-23T20:57:23.362Z,60.01
2022-09-23T20:59:54.961Z,60.23
2022-09-23T21:02:27.371Z,60.42
2022-09-23T21:04:59.041Z,60.56
2022-09-23T21:07:31.044Z,60.71
2022-09-23T21:10:12.301Z,60.99
2022-09-23T21:12:42.716Z,61.02
2022-09-23T21:15:14.703Z,60.99
2022-09-23T21:17:46.454Z,61.10
2022-09-23T21:20:24.175Z,61.28
2022-09-23T21:22:56.438Z,61.43
2022-09-23T21:25:29.183Z,61.81
2022-09-23T21:28:02.115Z,61.73
2022-09-23T21:30:36.087Z,62.39
2022-09-23T21:33:07.643Z,62.25
2022-09-23T21:35:39.369Z,62.44
2022-09-23T21:38:10.968Z,62.67
2022-09-23T21:40:58.616Z,62.83
2022-09-23T21:43:33.354Z,62.77
2022-09-23T21:46:07.512Z,62.90
2022-09-23T21:48:41.241Z,63.06
2022-09-23T21:51:16.891Z,63.00
2022-09-23T21:53:49.104Z,63.41
2022-09-23T21:56:22.568Z,63.48
2022-09-23T21:58:56.363Z,63.49
2022-09-23T22:01:31.642Z,63.54
2022-09-23T22:04:08.529Z,63.43
2022-09-23T22:06:40.869Z,63.48
2022-09-23T22:09:15.815Z,63.40
2022-09-23T22:12:10.305Z,63.56
2022-09-23T22:14:43.409Z,63.42
2022-09-23T22:17:16.624Z,63.50
2022-09-23T22:19:48.851Z,63.44
2022-09-23T22:22:22.602Z,63.42
2022-09-23T22:24:54.201Z,63.45
2022-09-23T22:27:27.459Z,63.61
2022-09-23T22:30:16.701Z,63.73
2022-09-23T22:32:54.887Z,63.66
2022-09-23T22:35:26.772Z,63.63
2022-09-23T22:38:00.600Z,63.68
2022-09-23T22:40:32.538Z,63.64
2022-09-23T22:43:05.895Z,63.61
2022-09-23T22:45:37.750Z,63.74
2022-09-23T22:48:09.624Z,63.69
2022-09-23T22:50:42.674Z,63.78
2022-09-23T22:53:15.476Z,63.73
2022-09-23T22:55:57.548Z,63.76
2022-09-23T22:58:32.722Z,63.87
2022-09-23T23:01:05.520Z,63.90
2022-09-23T23:03:38.165Z,64.11
2022-09-23T23:06:11.193Z,64.08
2022-09-23T23:08:43.551Z,64.07
2022-09-23T23:11:15.149Z,64.17
2022-09-23T23:13:47.605Z,64.39
2022-09-23T23:16:19.271Z,64.26
2022-09-23T23:18:50.996Z,64.25
2022-09-23T23:21:23.658Z,64.32
2022-09-23T23:23:55.769Z,64.36
2022-09-23T23:26:29.098Z,64.18
2022-09-23T23:29:01.946Z,64.15
2022-09-23T23:31:33.687Z,64.29
2022-09-23T23:34:06.192Z,64.25
2022-09-23T23:36:37.788Z,64.35
2022-09-23T23:39:09.718Z,64.30
2022-09-23T23:41:41.652Z,64.17
2022-09-23T23:44:15.658Z,63.97
2022-09-23T23:46:47.268Z,64.34
2022-09-23T23:49:20.452Z,64.31
2022-09-23T23:51:53.099Z,64.38
2022-09-23T23:54:25.584Z,64.43
2022-09-23T23:56:57.202Z,64.39
2022-09-23T23:59:32.115Z,64.59
